createdAt,value
2019-05-20T00:01:51.130Z,20.26
2019-05-20T00:04:21.816Z,20.15
2019-05-20T00:06:53.382Z,20.27
2019-05-20T00:09:23.518Z,20.11
2019-05-20T00:11:53.892Z,20.21
2019-05-20T00:14:25.186Z,20.15
2019-05-20T00:16:55.804Z,20.27
2019-05-20T00:19:26.146Z,20.27
2019-05-20T00:21:56.319Z,20.18
2019-05-20T00:24:26.487Z,20.10
2019-05-20T00:26:59.482Z,20.25
2019-05-20T00:29:29.706Z,20.27
2019-05-20T00:35:15.654Z,20.14
2019-05-20T00:38:00.816Z,20.11
2019-05-20T00:41:18.633Z,20.07
2019-05-20T00:44:09.301Z,20.21
2019-05-20T00:47:03.505Z,20.07
2019-05-20T00:49:51.557Z,20.22
2019-05-20T00:52:43.176Z,20.09
2019-05-20T00:55:26.908Z,20.18
2019-05-20T00:57:57.056Z,19.96
2019-05-20T01:00:28.515Z,19.90
2019-05-20T01:02:58.672Z,19.94
2019-05-20T01:05:33.405Z,19.94
2019-05-20T01:08:14.819Z,20.01
2019-05-20T01:14:15.688Z,19.97
2019-05-20T01:16:46.087Z,19.90
2019-05-20T01:19:16.351Z,19.93
2019-05-20T01:21:46.966Z,19.99
2019-05-20T01:24:18.324Z,19.82
2019-05-20T01:26:48.540Z,19.84
2019-05-20T01:29:18.695Z,19.84
2019-05-20T01:31:49.415Z,19.84
2019-05-20T01:34:20.130Z,19.92
2019-05-20T01:36:50.373Z,19.94
2019-05-20T01:39:20.674Z,19.97
2019-05-20T01:41:50.829Z,20.02
2019-05-20T01:44:21.017Z,19.72
2019-05-20T01:46:52.401Z,19.81
2019-05-20T01:49:22.983Z,19.68
2019-05-20T01:51:53.670Z,19.69
2019-05-20T01:54:23.921Z,19.82
2019-05-20T01:56:54.093Z,19.82
2019-05-20T01:59:25.974Z,19.76
2019-05-20T02:01:56.145Z,19.61
2019-05-20T02:04:26.324Z,19.72
2019-05-20T02:06:56.566Z,19.63
2019-05-20T02:09:27.172Z,19.86
2019-05-20T02:11:57.403Z,19.95
2019-05-20T02:14:29.751Z,19.96
2019-05-20T02:17:02.627Z,19.90
2019-05-20T02:19:32.341Z,19.80
2019-05-20T02:22:03.516Z,19.82
2019-05-20T02:24:33.734Z,19.92
2019-05-20T02:27:03.968Z,20.04
2019-05-20T02:29:34.689Z,19.99
2019-05-20T02:32:04.943Z,19.99
2019-05-20T02:34:35.172Z,20.00
2019-05-20T02:37:12.879Z,19.92
2019-05-20T02:39:51.368Z,20.04
2019-05-20T02:43:03.500Z,19.99
2019-05-20T02:46:07.248Z,19.99
2019-05-20T02:48:41.780Z,20.10
2019-05-20T02:51:12.371Z,20.22
2019-05-20T02:53:43.166Z,20.25
2019-05-20T02:56:13.303Z,20.19
2019-05-20T02:58:43.466Z,20.15
2019-05-20T03:01:13.635Z,20.27
2019-05-20T03:03:44.237Z,20.19
2019-05-20T03:06:14.420Z,20.20
2019-05-20T03:09:16.618Z,20.33
2019-05-20T03:12:38.350Z,20.22
2019-05-20T03:15:18.564Z,20.37
2019-05-20T03:18:09.609Z,20.22
2019-05-20T03:20:47.605Z,20.31
2019-05-20T03:23:34.596Z,20.40
2019-05-20T03:26:19.675Z,20.41
2019-05-20T03:28:51.565Z,20.44
2019-05-20T03:31:21.810Z,20.35
2019-05-20T03:33:51.967Z,20.44
2019-05-20T03:36:22.130Z,20.44
2019-05-20T03:38:52.386Z,20.31
2019-05-20T03:41:33.577Z,20.32
2019-05-20T03:44:10.940Z,20.39
2019-05-20T03:47:09.895Z,20.45
2019-05-20T03:49:41.775Z,20.53
2019-05-20T03:52:12.312Z,20.45
2019-05-20T03:54:44.121Z,20.62
2019-05-20T03:57:14.275Z,20.49
2019-05-20T03:59:44.419Z,20.56
2019-05-20T04:02:15.814Z,20.57
2019-05-20T04:05:00.677Z,20.40
2019-05-20T04:07:19.364Z,20.51
2019-05-20T04:09:49.538Z,20.51
2019-05-20T04:12:44.919Z,20.60
2019-05-20T04:15:42.677Z,20.49
2019-05-20T04:19:10.381Z,20.55
2019-05-20T04:21:41.974Z,20.53
2019-05-20T04:24:12.299Z,20.61
2019-05-20T04:26:42.923Z,20.54
2019-05-20T04:29:13.888Z,20.43
2019-05-20T04:31:50.000Z,20.62
2019-05-20T04:38:03.752Z,20.63
2019-05-20T04:44:43.821Z,20.53
2019-05-20T04:47:43.225Z,20.55
2019-05-20T04:50:43.527Z,20.60
2019-05-20T04:54:12.902Z,20.53
2019-05-20T04:56:56.314Z,20.74
2019-05-20T04:59:41.994Z,20.57
2019-05-20T05:02:46.982Z,20.40
2019-05-20T05:05:49.009Z,20.78
2019-05-20T05:12:17.923Z,20.59
2019-05-20T05:15:47.745Z,20.65
2019-05-20T05:18:54.679Z,20.80
2019-05-20T05:22:01.480Z,20.64
2019-05-20T05:24:33.123Z,20.63
2019-05-20T05:27:03.744Z,20.72
2019-05-20T05:29:33.933Z,20.56
2019-05-20T05:32:04.147Z,20.74
2019-05-20T05:34:35.440Z,20.66
2019-05-20T05:37:06.054Z,20.80
2019-05-20T05:39:36.377Z,20.69
2019-05-20T05:42:06.546Z,20.65
2019-05-20T05:44:48.000Z,20.69
2019-05-20T05:47:34.983Z,20.72
2019-05-20T05:50:43.339Z,20.75
2019-05-20T05:53:45.910Z,20.76
2019-05-20T05:56:17.791Z,20.49
2019-05-20T05:58:49.250Z,20.65
2019-05-20T06:01:19.602Z,20.64
2019-05-20T06:03:49.767Z,20.61
2019-05-20T06:06:31.135Z,20.58
2019-05-20T06:09:25.943Z,20.79
2019-05-20T06:15:45.169Z,20.62
2019-05-20T06:18:27.536Z,20.85
2019-05-20T06:21:21.892Z,20.84
2019-05-20T06:24:15.200Z,20.59
2019-05-20T06:26:46.923Z,20.76
2019-05-20T06:29:17.194Z,20.94
2019-05-20T06:31:47.846Z,20.87
2019-05-20T06:34:19.255Z,20.83
2019-05-20T06:43:58.093Z,20.87
2019-05-20T06:50:29.712Z,20.80
2019-05-20T06:53:15.091Z,20.91
2019-05-20T06:56:05.639Z,20.93
2019-05-20T06:58:35.947Z,20.83
2019-05-20T07:01:07.006Z,20.93
2019-05-20T07:03:37.275Z,20.83
2019-05-20T07:06:08.094Z,20.84
2019-05-20T07:08:38.835Z,21.04
2019-05-20T07:11:09.031Z,21.11
2019-05-20T07:13:39.239Z,21.03
2019-05-20T07:16:09.562Z,21.12
2019-05-20T07:18:40.344Z,20.96
2019-05-20T07:21:10.548Z,21.03
2019-05-20T07:23:41.681Z,20.99
2019-05-20T07:26:11.934Z,20.90
2019-05-20T07:28:42.196Z,20.90
2019-05-20T07:31:12.489Z,20.82
2019-05-20T07:33:43.315Z,20.82
2019-05-20T07:36:13.585Z,20.77
2019-05-20T07:38:45.516Z,20.99
2019-05-20T07:41:15.705Z,20.81
2019-05-20T07:43:45.939Z,20.95
2019-05-20T07:46:16.686Z,20.94
2019-05-20T07:48:47.890Z,21.11
2019-05-20T07:51:20.431Z,21.11
2019-05-20T07:53:51.762Z,21.09
2019-05-20T07:56:25.881Z,21.05
2019-05-20T07:58:59.156Z,21.04
2019-05-20T08:01:30.615Z,21.13
2019-05-20T08:04:00.816Z,21.13
2019-05-20T08:06:31.186Z,21.04
2019-05-20T08:09:01.520Z,21.16
2019-05-20T08:11:34.016Z,21.10
2019-05-20T08:14:04.718Z,21.17
2019-05-20T08:16:34.917Z,21.30
2019-05-20T08:19:05.175Z,21.24
2019-05-20T08:21:35.323Z,21.19
2019-05-20T08:24:05.717Z,21.28
2019-05-20T08:26:36.383Z,21.23
2019-05-20T08:29:06.527Z,21.26
2019-05-20T08:31:37.211Z,21.26
2019-05-20T08:34:07.408Z,21.14
2019-05-20T08:36:37.566Z,21.31
2019-05-20T08:39:09.441Z,21.24
2019-05-20T08:42:26.509Z,21.24
2019-05-20T08:45:10.639Z,21.17
2019-05-20T08:51:20.924Z,21.20
2019-05-20T08:53:54.256Z,21.24
2019-05-20T08:56:24.685Z,21.32
2019-05-20T08:58:54.854Z,21.07
2019-05-20T09:01:25.096Z,21.07
2019-05-20T09:03:56.883Z,21.04
2019-05-20T09:06:28.053Z,21.26
2019-05-20T09:08:58.255Z,21.06
2019-05-20T09:11:28.408Z,20.85
2019-05-20T09:13:59.652Z,21.08
2019-05-20T09:16:30.426Z,21.08
2019-05-20T09:19:00.655Z,21.15
2019-05-20T09:21:30.815Z,21.17
2019-05-20T09:24:01.018Z,21.15
2019-05-20T09:26:31.400Z,20.92
2019-05-20T09:29:02.505Z,21.26
2019-05-20T09:31:33.644Z,21.26
2019-05-20T09:34:03.830Z,21.45
2019-05-20T09:36:34.089Z,21.32
2019-05-20T09:39:05.826Z,21.32
2019-05-20T09:41:37.224Z,21.63
2019-05-20T09:44:07.841Z,21.37
2019-05-20T09:46:38.052Z,21.52
2019-05-20T09:49:08.171Z,21.65
2019-05-20T09:51:38.363Z,21.76
2019-05-20T09:54:08.509Z,21.52
2019-05-20T09:56:40.097Z,21.59
2019-05-20T09:59:10.839Z,21.58
2019-05-20T10:01:41.263Z,21.59
2019-05-20T10:04:12.025Z,21.59
2019-05-20T10:06:42.291Z,21.78
2019-05-20T10:09:12.848Z,21.71
2019-05-20T10:11:43.602Z,21.59
2019-05-20T10:14:59.768Z,21.54
2019-05-20T10:18:35.555Z,21.54
2019-05-20T10:21:54.393Z,21.50
2019-05-20T10:24:39.480Z,21.43
2019-05-20T10:27:09.698Z,21.57
2019-05-20T10:29:40.956Z,21.37
2019-05-20T10:32:11.632Z,21.54
2019-05-20T10:34:41.813Z,21.37
2019-05-20T10:37:11.976Z,21.50
2019-05-20T10:39:42.167Z,21.56
2019-05-20T10:42:12.519Z,21.55
2019-05-20T10:44:43.096Z,21.61
2019-05-20T10:47:13.334Z,21.54
2019-05-20T10:49:43.546Z,21.84
2019-05-20T10:52:14.779Z,21.83
2019-05-20T10:54:44.935Z,21.77
2019-05-20T11:01:03.082Z,21.90
2019-05-20T11:04:46.613Z,21.76
2019-05-20T11:07:44.766Z,21.44
2019-05-20T11:14:05.926Z,21.84
2019-05-20T11:16:38.080Z,21.75
2019-05-20T11:19:08.234Z,22.03
2019-05-20T11:21:38.407Z,21.88
2019-05-20T11:24:09.072Z,21.82
2019-05-20T11:26:39.675Z,21.86
2019-05-20T11:29:09.860Z,21.86
2019-05-20T11:31:41.106Z,22.08
2019-05-20T11:34:11.333Z,22.04
2019-05-20T11:36:41.954Z,21.88
2019-05-20T11:40:00.529Z,21.93
2019-05-20T11:42:59.605Z,21.99
2019-05-20T11:46:07.189Z,22.15
2019-05-20T11:48:40.747Z,21.93
2019-05-20T11:51:11.196Z,21.86
2019-05-20T11:53:41.378Z,21.87
2019-05-20T11:56:13.024Z,21.99
2019-05-20T11:58:43.647Z,22.05
2019-05-20T12:01:13.855Z,21.96
2019-05-20T12:03:44.046Z,22.11
2019-05-20T12:06:14.273Z,22.09
2019-05-20T12:09:49.077Z,22.14
2019-05-20T12:12:53.649Z,22.24
2019-05-20T12:19:01.922Z,22.25
2019-05-20T12:21:32.182Z,22.04
2019-05-20T12:24:02.799Z,22.12
2019-05-20T12:26:33.105Z,21.91
2019-05-20T12:29:03.258Z,22.14
2019-05-20T12:31:33.479Z,22.23
2019-05-20T12:34:05.707Z,22.05
2019-05-20T12:36:39.208Z,21.88
2019-05-20T12:39:09.431Z,21.84
2019-05-20T12:41:39.622Z,22.08
2019-05-20T12:44:12.941Z,22.00
2019-05-20T12:46:42.369Z,21.88
2019-05-20T12:49:15.396Z,22.07
2019-05-20T12:51:45.864Z,22.12
2019-05-20T12:54:16.578Z,22.20
2019-05-20T12:56:46.731Z,22.12
2019-05-20T12:59:16.968Z,21.86
2019-05-20T13:01:47.242Z,22.14
2019-05-20T13:04:17.530Z,21.96
2019-05-20T13:06:48.158Z,21.85
2019-05-20T13:09:19.245Z,22.00
2019-05-20T13:11:49.507Z,22.24
2019-05-20T13:14:19.692Z,22.29
2019-05-20T13:16:50.608Z,22.17
2019-05-20T13:19:22.600Z,21.84
2019-05-20T13:21:54.882Z,21.93
2019-05-20T13:24:25.007Z,22.10
2019-05-20T13:26:55.747Z,21.88
2019-05-20T13:29:25.912Z,22.12
2019-05-20T13:31:56.109Z,21.96
2019-05-20T13:34:26.369Z,22.04
2019-05-20T13:36:57.077Z,21.99
2019-05-20T13:39:29.443Z,21.87
2019-05-20T13:41:59.631Z,22.08
2019-05-20T13:44:29.837Z,22.18
2019-05-20T13:47:00.556Z,22.17
2019-05-20T13:49:30.871Z,22.20
2019-05-20T13:52:01.082Z,21.94
2019-05-20T13:54:34.522Z,21.65
2019-05-20T13:57:07.069Z,22.04
2019-05-20T13:59:38.597Z,22.17
2019-05-20T14:02:10.279Z,22.22
2019-05-20T14:04:40.552Z,22.48
2019-05-20T14:07:13.987Z,22.05
2019-05-20T14:09:45.577Z,22.32
2019-05-20T14:12:15.729Z,22.07
2019-05-20T14:14:45.899Z,21.92
2019-05-20T14:17:16.565Z,22.09
2019-05-20T14:19:46.876Z,22.30
2019-05-20T14:22:18.499Z,22.03
2019-05-20T14:24:49.267Z,22.13
2019-05-20T14:27:19.990Z,22.09
2019-05-20T14:29:50.211Z,22.45
2019-05-20T14:32:20.607Z,22.09
2019-05-20T14:34:50.880Z,21.95
2019-05-20T14:37:21.035Z,22.23
2019-05-20T14:39:52.522Z,22.25
2019-05-20T14:42:25.479Z,22.20
2019-05-20T14:44:55.064Z,21.95
2019-05-20T14:47:25.285Z,21.92
2019-05-20T14:49:57.336Z,22.07
2019-05-20T14:52:27.902Z,21.97
2019-05-20T14:54:58.565Z,21.82
2019-05-20T14:57:29.522Z,21.97
2019-05-20T14:59:59.697Z,22.17
2019-05-20T15:02:31.103Z,21.79
2019-05-20T15:05:01.586Z,21.85
2019-05-20T15:07:31.803Z,21.82
2019-05-20T15:10:03.535Z,21.71
2019-05-20T15:12:34.147Z,21.80
2019-05-20T15:15:04.578Z,21.98
2019-05-20T15:17:34.796Z,21.88
2019-05-20T15:20:05.579Z,22.11
2019-05-20T15:22:39.576Z,21.84
2019-05-20T15:25:11.527Z,22.09
2019-05-20T15:27:42.448Z,21.99
2019-05-20T15:30:13.053Z,22.13
2019-05-20T15:32:43.255Z,21.99
2019-05-20T15:35:14.064Z,22.00
2019-05-20T15:37:47.126Z,22.16
2019-05-20T15:40:23.836Z,22.07
2019-05-20T15:42:51.509Z,22.32
2019-05-20T15:45:21.755Z,22.39
2019-05-20T15:47:52.919Z,22.42
2019-05-20T15:50:23.535Z,22.43
2019-05-20T15:52:53.755Z,22.13
2019-05-20T15:55:25.084Z,22.25
2019-05-20T15:57:55.297Z,22.32
2019-05-20T16:00:25.494Z,22.37
2019-05-20T16:02:56.001Z,22.34
2019-05-20T16:05:26.668Z,22.29
2019-05-20T16:07:56.878Z,22.49
2019-05-20T16:10:28.512Z,22.35
2019-05-20T16:12:58.688Z,22.42
2019-05-20T16:15:28.859Z,22.38
2019-05-20T16:17:59.683Z,22.31
2019-05-20T16:20:30.077Z,22.26
2019-05-20T16:23:00.244Z,22.29
2019-05-20T16:25:30.441Z,22.32
2019-05-20T16:28:01.858Z,22.42
2019-05-20T16:30:32.091Z,22.20
2019-05-20T16:33:02.351Z,22.11
2019-05-20T16:35:32.646Z,22.10
2019-05-20T16:38:03.353Z,22.08
2019-05-20T16:40:33.605Z,22.26
2019-05-20T16:43:03.830Z,22.19
2019-05-20T16:45:34.662Z,22.21
2019-05-20T16:48:05.266Z,22.12
2019-05-20T16:50:35.580Z,22.26
2019-05-20T16:53:06.025Z,22.22
2019-05-20T16:55:36.352Z,21.97
2019-05-20T16:58:07.552Z,21.87
2019-05-20T17:00:37.837Z,21.88
2019-05-20T17:03:09.330Z,22.04
2019-05-20T17:05:39.571Z,22.11
2019-05-20T17:08:09.881Z,21.81
2019-05-20T17:10:41.285Z,21.85
2019-05-20T17:13:11.553Z,21.85
2019-05-20T17:15:41.760Z,21.70
2019-05-20T17:18:12.452Z,21.89
2019-05-20T17:20:46.088Z,22.00
2019-05-20T17:23:16.026Z,21.98
2019-05-20T17:25:50.363Z,22.07
2019-05-20T17:28:18.419Z,21.99
2019-05-20T17:30:48.599Z,21.82
2019-05-20T17:33:20.166Z,21.90
2019-05-20T17:35:50.479Z,21.77
2019-05-20T17:38:20.659Z,21.85
2019-05-20T17:40:51.834Z,21.72
2019-05-20T17:43:23.739Z,21.76
2019-05-20T17:45:54.084Z,21.93
2019-05-20T17:48:24.276Z,21.91
2019-05-20T17:50:54.436Z,21.77
2019-05-20T17:53:24.624Z,21.69
2019-05-20T17:55:55.238Z,21.79
2019-05-20T17:58:26.596Z,21.66
2019-05-20T18:01:12.220Z,21.76
2019-05-20T18:03:29.752Z,21.73
2019-05-20T18:05:59.915Z,21.73
2019-05-20T18:08:34.659Z,21.79
2019-05-20T18:11:06.027Z,21.78
2019-05-20T18:13:36.234Z,21.83
2019-05-20T18:16:06.418Z,22.01
2019-05-20T18:18:39.642Z,21.78
2019-05-20T18:21:09.910Z,21.64
2019-05-20T18:23:40.616Z,21.64
2019-05-20T18:26:10.616Z,21.66
2019-05-20T18:28:41.267Z,21.56
2019-05-20T18:31:11.425Z,21.82
2019-05-20T18:33:41.956Z,21.60
2019-05-20T18:36:12.124Z,21.78
2019-05-20T18:38:44.931Z,21.63
2019-05-20T18:41:15.108Z,21.24
2019-05-20T18:43:45.326Z,21.42
2019-05-20T18:46:15.579Z,21.47
2019-05-20T18:48:47.497Z,21.51
2019-05-20T18:51:17.764Z,21.47
2019-05-20T18:53:48.984Z,21.63
2019-05-20T18:56:20.380Z,21.40
2019-05-20T18:58:51.050Z,21.57
2019-05-20T19:01:21.209Z,21.72
2019-05-20T19:03:51.402Z,21.72
2019-05-20T19:06:21.614Z,21.30
2019-05-20T19:08:51.890Z,21.74
2019-05-20T19:11:23.655Z,21.44
2019-05-20T19:13:54.320Z,21.44
2019-05-20T19:16:24.614Z,21.42
2019-05-20T19:18:54.747Z,21.56
2019-05-20T19:21:25.002Z,21.47
2019-05-20T19:23:55.915Z,21.47
2019-05-20T19:26:26.149Z,21.35
2019-05-20T19:28:57.358Z,21.35
2019-05-20T19:31:28.220Z,21.40
2019-05-20T19:33:58.741Z,21.48
2019-05-20T19:36:29.367Z,21.37
2019-05-20T19:38:59.646Z,21.24
2019-05-20T19:41:31.372Z,21.33
2019-05-20T19:44:01.765Z,21.33
2019-05-20T19:46:31.974Z,21.15
2019-05-20T19:49:03.172Z,21.30
2019-05-20T19:51:33.446Z,21.30
2019-05-20T19:54:03.606Z,21.46
2019-05-20T19:56:35.140Z,21.46
2019-05-20T19:59:05.875Z,21.65
2019-05-20T20:01:36.011Z,21.42
2019-05-20T20:04:06.266Z,21.42
2019-05-20T20:06:36.465Z,21.32
2019-05-20T20:09:07.634Z,21.53
2019-05-20T20:11:39.476Z,21.38
2019-05-20T20:14:10.200Z,21.22
2019-05-20T20:16:40.418Z,21.22
2019-05-20T20:19:10.575Z,21.38
2019-05-20T20:21:40.762Z,20.86
2019-05-20T20:24:11.413Z,21.25
2019-05-20T20:26:41.592Z,21.24
2019-05-20T20:29:11.804Z,21.40
2019-05-20T20:31:41.971Z,21.18
2019-05-20T20:34:12.751Z,21.17
2019-05-20T20:36:42.927Z,21.25
2019-05-20T20:39:13.072Z,21.30
2019-05-20T20:41:43.326Z,21.17
2019-05-20T20:44:14.012Z,20.97
2019-05-20T20:46:44.174Z,20.97
2019-05-20T20:49:14.946Z,20.92
2019-05-20T20:51:45.390Z,20.83
2019-05-20T20:54:15.900Z,20.96
2019-05-20T20:56:46.102Z,21.08
2019-05-20T20:59:16.367Z,21.16
2019-05-20T21:01:46.528Z,21.16
2019-05-20T21:04:17.614Z,21.05
2019-05-20T21:06:48.372Z,21.08
2019-05-20T21:09:18.598Z,21.02
2019-05-20T21:11:50.105Z,20.97
2019-05-20T21:14:20.351Z,21.08
2019-05-20T21:16:52.390Z,20.89
2019-05-20T21:19:22.559Z,20.89
2019-05-20T21:21:52.930Z,20.98
2019-05-20T21:24:24.092Z,20.75
2019-05-20T21:26:54.822Z,20.73
2019-05-20T21:29:25.001Z,20.91
2019-05-20T21:31:55.161Z,20.73
2019-05-20T21:34:25.388Z,20.87
2019-05-20T21:36:55.604Z,20.74
2019-05-20T21:39:31.347Z,20.75
2019-05-20T21:42:01.589Z,20.89
2019-05-20T21:44:31.822Z,20.59
2019-05-20T21:47:11.091Z,20.65
2019-05-20T21:49:41.839Z,20.50
2019-05-20T21:52:12.003Z,20.60
2019-05-20T21:54:43.843Z,20.52
2019-05-20T21:57:14.031Z,20.33
2019-05-20T21:59:44.695Z,20.49
2019-05-20T22:02:14.889Z,20.38
2019-05-20T22:04:45.426Z,20.28
2019-05-20T22:07:15.634Z,20.45
2019-05-20T22:09:46.290Z,20.64
2019-05-20T22:12:18.307Z,20.36
2019-05-20T22:14:48.574Z,20.28
2019-05-20T22:17:18.751Z,20.23
2019-05-20T22:19:49.051Z,20.30
2019-05-20T22:22:38.662Z,20.25
2019-05-20T22:25:09.563Z,20.24
2019-05-20T22:27:39.753Z,20.25
2019-05-20T22:30:10.267Z,20.18
2019-05-20T22:32:40.440Z,20.35
2019-05-20T22:35:11.475Z,20.14
2019-05-20T22:37:41.630Z,20.24
2019-05-20T22:40:12.852Z,20.13
2019-05-20T22:42:43.013Z,20.24
2019-05-20T22:45:13.709Z,20.22
2019-05-20T22:47:44.000Z,20.22
2019-05-20T22:50:14.157Z,20.26
2019-05-20T22:52:44.345Z,19.86
2019-05-20T22:55:15.625Z,20.23
2019-05-20T22:57:46.342Z,19.94
2019-05-20T23:00:16.816Z,19.92
2019-05-20T23:02:46.979Z,20.20
2019-05-20T23:05:18.339Z,20.11
2019-05-20T23:07:48.980Z,20.08
2019-05-20T23:10:20.713Z,20.03
2019-05-20T23:12:51.370Z,20.21
2019-05-20T23:15:21.644Z,20.05
2019-05-20T23:17:52.303Z,20.00
2019-05-20T23:20:22.503Z,19.65
2019-05-20T23:22:52.670Z,20.09
2019-05-20T23:25:24.198Z,19.83
2019-05-20T23:27:54.860Z,19.93
2019-05-20T23:30:25.116Z,20.01
2019-05-20T23:32:55.281Z,20.05
2019-05-20T23:35:25.448Z,20.09
2019-05-20T23:37:55.608Z,19.76
2019-05-20T23:40:26.193Z,19.99
2019-05-20T23:42:56.943Z,20.00
2019-05-20T23:45:27.148Z,19.88
2019-05-20T23:47:57.295Z,19.74
2019-05-20T23:50:28.023Z,19.87
2019-05-20T23:52:58.213Z,19.78
2019-05-20T23:55:28.363Z,19.73
2019-05-20T23:57:59.480Z,19.59
